KSMS Airport (Sumter) Information

FAA: SMS - ICAO: KSMS

KSMS Airport Location

State South Carolina
County Sumter
City Sumter
KSMS Airport is 4 miles north of Sumter, SC.
Latitude 33-59-42.0920N
Longitude 080-21-40.7840W
Elevation 182ft

KSMS Airport METARs

METAR KSMS 121415Z AUTO 24004KT 9SM VCTS OVC010 24/23 A3002 RMK AO2 LTG DSNT N AND NE
Altimeter 30.02"
Temperature 24.0°C (75.2°F)
Wind 240° at 4KT
Clouds overcast at 1,000ft
Visibility 9.0mi
Time observed: 2022-08-12T14:15:00Z

KSMS Airport Details

Status Operational
Activation February 1957
Ownership Public
Usage Public
Chart CHARLOTTE
ATC on-site No
Beacon schedule sunset-sunrise
Beacon color clear green

KSMS Airport Contacts

Owner COUNTY OF SUMTER
Owner address 13 EAST CANAL STREET, SUMTER, SC 29150
Owner phone (803) 469-4639
Manager RICHARD DEAN
Manager address P.O. BOX 653, RIDGELAND, SC 29936
Manager phone (843) 929-4159

KSMS Airport (Sumter) Radio Frequencies

KSMS (Airport) Radio Frequencies

UNICOM 122.7
Common traffic advisory frequency (CTAF) 122.7